sensor_id;sensor_type;location;lat;lon;timestamp;P1;durP1;ratioP1;P2;durP2;ratioP2
13704;SDS011;6924;52.122;9.952;2022-07-23T00:00:10;3.77;;;3.47;;
13704;SDS011;6924;52.122;9.952;2022-07-23T00:02:37;4.37;;;3.90;;
13704;SDS011;6924;52.122;9.952;2022-07-23T00:05:04;3.77;;;3.47;;
13704;SDS011;6924;52.122;9.952;2022-07-23T00:07:30;5.30;;;3.77;;
13704;SDS011;6924;52.122;9.952;2022-07-23T00:09:57;3.47;;;3.17;;
13704;SDS011;6924;52.122;9.952;2022-07-23T00:12:23;3.47;;;3.17;;
13704;SDS011;6924;52.122;9.952;2022-07-23T00:14:50;3.80;;;3.50;;
13704;SDS011;6924;52.122;9.952;2022-07-23T00:17:18;4.53;;;3.90;;
13704;SDS011;6924;52.122;9.952;2022-07-23T00:19:44;4.33;;;3.93;;
13704;SDS011;6924;52.122;9.952;2022-07-23T00:22:11;4.97;;;4.57;;
13704;SDS011;6924;52.122;9.952;2022-07-23T00:24:37;3.70;;;3.47;;
13704;SDS011;6924;52.122;9.952;2022-07-23T00:27:04;4.10;;;3.80;;
13704;SDS011;6924;52.122;9.952;2022-07-23T00:29:30;4.07;;;3.77;;
13704;SDS011;6924;52.122;9.952;2022-07-23T00:31:57;4.60;;;4.20;;
13704;SDS011;6924;52.122;9.952;2022-07-23T00:34:24;4.10;;;3.70;;
13704;SDS011;6924;52.122;9.952;2022-07-23T00:36:51;4.50;;;4.00;;
13704;SDS011;6924;52.122;9.952;2022-07-23T00:39:18;4.00;;;3.53;;
13704;SDS011;6924;52.122;9.952;2022-07-23T00:41:46;4.17;;;3.87;;
13704;SDS011;6924;52.122;9.952;2022-07-23T00:44:19;4.33;;;3.93;;
13704;SDS011;6924;52.122;9.952;2022-07-23T00:46:48;4.30;;;4.00;;
13704;SDS011;6924;52.122;9.952;2022-07-23T00:49:18;5.33;;;3.83;;
13704;SDS011;6924;52.122;9.952;2022-07-23T00:51:46;4.63;;;3.93;;
13704;SDS011;6924;52.122;9.952;2022-07-23T00:54:13;3.97;;;3.67;;
13704;SDS011;6924;52.122;9.952;2022-07-23T00:56:40;3.57;;;3.27;;
13704;SDS011;6924;52.122;9.952;2022-07-23T00:59:08;4.17;;;3.87;;
13704;SDS011;6924;52.122;9.952;2022-07-23T01:01:35;4.00;;;3.70;;
13704;SDS011;6924;52.122;9.952;2022-07-23T01:04:01;5.47;;;4.93;;
13704;SDS011;6924;52.122;9.952;2022-07-23T01:06:28;5.03;;;4.53;;
13704;SDS011;6924;52.122;9.952;2022-07-23T01:08:58;6.03;;;5.53;;
13704;SDS011;6924;52.122;9.952;2022-07-23T01:11:24;4.90;;;4.50;;
13704;SDS011;6924;52.122;9.952;2022-07-23T01:13:51;4.87;;;4.47;;
13704;SDS011;6924;52.122;9.952;2022-07-23T01:16:17;4.47;;;4.07;;
13704;SDS011;6924;52.122;9.952;2022-07-23T01:18:43;6.10;;;4.77;;
13704;SDS011;6924;52.122;9.952;2022-07-23T01:21:10;5.20;;;4.80;;
13704;SDS011;6924;52.122;9.952;2022-07-23T01:23:40;5.57;;;4.70;;
13704;SDS011;6924;52.122;9.952;2022-07-23T01:26:06;6.03;;;4.47;;
13704;SDS011;6924;52.122;9.952;2022-07-23T01:28:33;4.23;;;3.83;;
13704;SDS011;6924;52.122;9.952;2022-07-23T01:30:59;4.73;;;4.40;;
13704;SDS011;6924;52.122;9.952;2022-07-23T01:33:26;4.20;;;3.90;;
13704;SDS011;6924;52.122;9.952;2022-07-23T01:35:52;4.67;;;4.17;;
13704;SDS011;6924;52.122;9.952;2022-07-23T01:38:18;4.77;;;4.17;;
13704;SDS011;6924;52.122;9.952;2022-07-23T01:40:46;7.87;;;4.70;;
13704;SDS011;6924;52.122;9.952;2022-07-23T01:43:13;4.13;;;3.80;;
13704;SDS011;6924;52.122;9.952;2022-07-23T01:45:39;5.13;;;4.00;;
13704;SDS011;6924;52.122;9.952;2022-07-23T01:48:06;5.07;;;4.67;;
13704;SDS011;6924;52.122;9.952;2022-07-23T01:50:33;3.93;;;3.50;;
13704;SDS011;6924;52.122;9.952;2022-07-23T01:53:00;4.87;;;4.47;;
13704;SDS011;6924;52.122;9.952;2022-07-23T01:55:26;4.37;;;3.83;;
13704;SDS011;6924;52.122;9.952;2022-07-23T01:57:54;4.30;;;3.90;;
13704;SDS011;6924;52.122;9.952;2022-07-23T02:00:20;5.57;;;3.93;;
13704;SDS011;6924;52.122;9.952;2022-07-23T02:02:47;3.73;;;3.43;;
13704;SDS011;6924;52.122;9.952;2022-07-23T02:05:13;3.67;;;3.30;;
13704;SDS011;6924;52.122;9.952;2022-07-23T02:07:40;5.43;;;3.20;;
13704;SDS011;6924;52.122;9.952;2022-07-23T02:10:07;3.23;;;3.03;;
13704;SDS011;6924;52.122;9.952;2022-07-23T02:12:34;3.20;;;3.00;;
13704;SDS011;6924;52.122;9.952;2022-07-23T02:15:02;4.27;;;3.70;;
13704;SDS011;6924;52.122;9.952;2022-07-23T02:17:29;4.43;;;4.03;;
13704;SDS011;6924;52.122;9.952;2022-07-23T02:19:55;3.13;;;2.87;;
13704;SDS011;6924;52.122;9.952;2022-07-23T02:22:22;4.13;;;3.77;;
13704;SDS011;6924;52.122;9.952;2022-07-23T02:24:48;7.53;;;3.90;;
13704;SDS011;6924;52.122;9.952;2022-07-23T02:27:15;4.00;;;3.70;;
13704;SDS011;6924;52.122;9.952;2022-07-23T02:29:41;4.30;;;4.00;;
13704;SDS011;6924;52.122;9.952;2022-07-23T02:32:09;3.10;;;2.90;;
13704;SDS011;6924;52.122;9.952;2022-07-23T02:34:35;4.67;;;4.03;;
13704;SDS011;6924;52.122;9.952;2022-07-23T02:37:02;5.53;;;3.43;;
13704;SDS011;6924;52.122;9.952;2022-07-23T02:39:29;3.70;;;3.40;;
13704;SDS011;6924;52.122;9.952;2022-07-23T02:41:55;3.47;;;3.27;;
13704;SDS011;6924;52.122;9.952;2022-07-23T02:44:22;5.20;;;4.00;;
13704;SDS011;6924;52.122;9.952;2022-07-23T02:46:48;3.90;;;3.60;;
13704;SDS011;6924;52.122;9.952;2022-07-23T02:49:16;6.13;;;4.17;;
13704;SDS011;6924;52.122;9.952;2022-07-23T02:51:42;3.83;;;3.53;;
13704;SDS011;6924;52.122;9.952;2022-07-23T02:54:09;4.37;;;3.50;;
13704;SDS011;6924;52.122;9.952;2022-07-23T02:56:35;3.90;;;3.60;;
13704;SDS011;6924;52.122;9.952;2022-07-23T02:59:02;3.70;;;3.40;;
13704;SDS011;6924;52.122;9.952;2022-07-23T03:01:28;4.57;;;4.17;;
13704;SDS011;6924;52.122;9.952;2022-07-23T03:03:55;3.63;;;3.43;;
13704;SDS011;6924;52.122;9.952;2022-07-23T03:06:22;4.53;;;3.83;;
13704;SDS011;6924;52.122;9.952;2022-07-23T03:08:49;4.00;;;3.30;;
13704;SDS011;6924;52.122;9.952;2022-07-23T03:11:15;4.30;;;4.00;;
13704;SDS011;6924;52.122;9.952;2022-07-23T03:13:42;3.53;;;3.23;;
13704;SDS011;6924;52.122;9.952;2022-07-23T03:16:08;4.60;;;4.13;;
13704;SDS011;6924;52.122;9.952;2022-07-23T03:18:35;6.70;;;4.27;;
13704;SDS011;6924;52.122;9.952;2022-07-23T03:21:02;4.27;;;3.97;;
13704;SDS011;6924;52.122;9.952;2022-07-23T03:23:30;5.67;;;4.30;;
13704;SDS011;6924;52.122;9.952;2022-07-23T03:25:56;5.90;;;4.70;;
13704;SDS011;6924;52.122;9.952;2022-07-23T03:28:23;6.47;;;5.13;;
13704;SDS011;6924;52.122;9.952;2022-07-23T03:30:49;7.07;;;4.90;;
13704;SDS011;6924;52.122;9.952;2022-07-23T03:33:16;5.20;;;4.70;;
13704;SDS011;6924;52.122;9.952;2022-07-23T03:35:44;7.13;;;4.50;;
13704;SDS011;6924;52.122;9.952;2022-07-23T03:38:11;7.17;;;5.17;;
13704;SDS011;6924;52.122;9.952;2022-07-23T03:40:39;5.33;;;4.17;;
13704;SDS011;6924;52.122;9.952;2022-07-23T03:43:05;7.33;;;5.00;;
13704;SDS011;6924;52.122;9.952;2022-07-23T03:45:32;5.83;;;5.20;;
13704;SDS011;6924;52.122;9.952;2022-07-23T03:47:59;6.40;;;4.67;;
13704;SDS011;6924;52.122;9.952;2022-07-23T03:50:25;5.40;;;4.63;;
13704;SDS011;6924;52.122;9.952;2022-07-23T03:52:52;5.53;;;5.10;;
13704;SDS011;6924;52.122;9.952;2022-07-23T03:55:19;5.90;;;5.50;;
13704;SDS011;6924;52.122;9.952;2022-07-23T03:57:47;5.47;;;4.97;;
13704;SDS011;6924;52.122;9.952;2022-07-23T04:00:13;5.80;;;5.03;;
13704;SDS011;6924;52.122;9.952;2022-07-23T04:02:40;6.13;;;5.50;;
13704;SDS011;6924;52.122;9.952;2022-07-23T04:05:07;5.77;;;5.20;;
13704;SDS011;6924;52.122;9.952;2022-07-23T04:07:33;8.50;;;5.80;;
13704;SDS011;6924;52.122;9.952;2022-07-23T04:10:00;7.23;;;5.87;;
13704;SDS011;6924;52.122;9.952;2022-07-23T04:12:26;5.83;;;5.33;;
13704;SDS011;6924;52.122;9.952;2022-07-23T04:14:54;6.13;;;5.63;;
13704;SDS011;6924;52.122;9.952;2022-07-23T04:17:21;7.83;;;6.53;;
13704;SDS011;6924;52.122;9.952;2022-07-23T04:19:47;6.83;;;5.97;;
13704;SDS011;6924;52.122;9.952;2022-07-23T04:22:14;6.17;;;5.67;;
13704;SDS011;6924;52.122;9.952;2022-07-23T04:24:40;7.30;;;6.70;;
13704;SDS011;6924;52.122;9.952;2022-07-23T04:27:06;6.50;;;5.80;;
13704;SDS011;6924;52.122;9.952;2022-07-23T04:29:33;6.63;;;6.13;;
13704;SDS011;6924;52.122;9.952;2022-07-23T04:32:01;7.27;;;6.67;;
13704;SDS011;6924;52.122;9.952;2022-07-23T04:34:27;6.87;;;6.27;;
13704;SDS011;6924;52.122;9.952;2022-07-23T04:36:54;5.90;;;5.37;;
13704;SDS011;6924;52.122;9.952;2022-07-23T04:39:20;6.73;;;6.23;;
13704;SDS011;6924;52.122;9.952;2022-07-23T04:41:47;6.77;;;5.80;;
13704;SDS011;6924;52.122;9.952;2022-07-23T04:44:13;7.33;;;6.67;;
13704;SDS011;6924;52.122;9.952;2022-07-23T04:46:40;6.67;;;6.07;;
13704;SDS011;6924;52.122;9.952;2022-07-23T04:49:08;7.53;;;6.57;;
13704;SDS011;6924;52.122;9.952;2022-07-23T04:51:34;6.83;;;6.30;;
13704;SDS011;6924;52.122;9.952;2022-07-23T04:54:01;6.83;;;6.30;;
13704;SDS011;6924;52.122;9.952;2022-07-23T04:56:27;6.50;;;5.90;;
13704;SDS011;6924;52.122;9.952;2022-07-23T04:58:54;6.20;;;5.70;;
13704;SDS011;6924;52.122;9.952;2022-07-23T05:01:20;6.37;;;5.97;;
13704;SDS011;6924;52.122;9.952;2022-07-23T05:03:46;7.07;;;6.40;;
13704;SDS011;6924;52.122;9.952;2022-07-23T05:06:15;6.07;;;5.57;;
13704;SDS011;6924;52.122;9.952;2022-07-23T05:08:41;9.73;;;5.87;;
13704;SDS011;6924;52.122;9.952;2022-07-23T05:11:08;6.80;;;6.20;;
13704;SDS011;6924;52.122;9.952;2022-07-23T05:13:34;7.57;;;6.80;;
13704;SDS011;6924;52.122;9.952;2022-07-23T05:16:01;7.27;;;6.40;;
13704;SDS011;6924;52.122;9.952;2022-07-23T05:18:27;6.67;;;6.17;;
13704;SDS011;6924;52.122;9.952;2022-07-23T05:20:54;8.57;;;7.00;;
13704;SDS011;6924;52.122;9.952;2022-07-23T05:23:21;6.23;;;5.73;;
13704;SDS011;6924;52.122;9.952;2022-07-23T05:25:48;9.27;;;6.20;;
13704;SDS011;6924;52.122;9.952;2022-07-23T05:28:14;6.87;;;6.10;;
13704;SDS011;6924;52.122;9.952;2022-07-23T05:30:41;6.43;;;5.93;;
13704;SDS011;6924;52.122;9.952;2022-07-23T05:33:07;6.90;;;6.30;;
13704;SDS011;6924;52.122;9.952;2022-07-23T05:35:34;7.87;;;7.23;;
13704;SDS011;6924;52.122;9.952;2022-07-23T05:38:00;6.93;;;6.40;;
13704;SDS011;6924;52.122;9.952;2022-07-23T05:40:28;6.87;;;6.20;;
13704;SDS011;6924;52.122;9.952;2022-07-23T05:42:55;6.67;;;6.17;;
13704;SDS011;6924;52.122;9.952;2022-07-23T05:45:21;6.30;;;5.80;;
13704;SDS011;6924;52.122;9.952;2022-07-23T05:47:48;9.80;;;5.30;;
13704;SDS011;6924;52.122;9.952;2022-07-23T05:50:15;5.43;;;5.03;;
13704;SDS011;6924;52.122;9.952;2022-07-23T05:52:42;5.30;;;4.80;;
13704;SDS011;6924;52.122;9.952;2022-07-23T05:55:09;6.57;;;5.27;;
13704;SDS011;6924;52.122;9.952;2022-07-23T05:57:38;5.00;;;4.60;;
13704;SDS011;6924;52.122;9.952;2022-07-23T06:00:06;5.57;;;5.07;;
13704;SDS011;6924;52.122;9.952;2022-07-23T06:02:34;5.80;;;5.23;;
13704;SDS011;6924;52.122;9.952;2022-07-23T06:05:00;5.70;;;5.30;;
13704;SDS011;6924;52.122;9.952;2022-07-23T06:07:27;5.77;;;5.17;;
13704;SDS011;6924;52.122;9.952;2022-07-23T06:09:53;5.03;;;4.63;;
13704;SDS011;6924;52.122;9.952;2022-07-23T06:12:20;4.87;;;4.40;;
13704;SDS011;6924;52.122;9.952;2022-07-23T06:14:48;4.73;;;4.33;;
13704;SDS011;6924;52.122;9.952;2022-07-23T06:17:16;6.27;;;4.97;;
13704;SDS011;6924;52.122;9.952;2022-07-23T06:19:43;5.27;;;4.77;;
13704;SDS011;6924;52.122;9.952;2022-07-23T06:22:09;5.83;;;4.67;;
13704;SDS011;6924;52.122;9.952;2022-07-23T06:24:36;4.57;;;4.17;;
13704;SDS011;6924;52.122;9.952;2022-07-23T06:27:02;8.73;;;5.00;;
13704;SDS011;6924;52.122;9.952;2022-07-23T06:29:29;5.23;;;4.70;;
13704;SDS011;6924;52.122;9.952;2022-07-23T06:31:57;5.00;;;4.50;;
13704;SDS011;6924;52.122;9.952;2022-07-23T06:34:23;4.37;;;3.97;;
13704;SDS011;6924;52.122;9.952;2022-07-23T06:36:50;8.10;;;4.70;;
13704;SDS011;6924;52.122;9.952;2022-07-23T06:39:16;4.77;;;3.70;;
13704;SDS011;6924;52.122;9.952;2022-07-23T06:41:43;5.00;;;3.70;;
13704;SDS011;6924;52.122;9.952;2022-07-23T06:44:09;4.17;;;3.77;;
13704;SDS011;6924;52.122;9.952;2022-07-23T06:46:35;3.20;;;2.90;;
13704;SDS011;6924;52.122;9.952;2022-07-23T06:49:03;5.10;;;3.73;;
13704;SDS011;6924;52.122;9.952;2022-07-23T06:51:30;5.50;;;3.60;;
13704;SDS011;6924;52.122;9.952;2022-07-23T06:53:56;4.43;;;3.33;;
13704;SDS011;6924;52.122;9.952;2022-07-23T06:56:23;3.83;;;3.53;;
13704;SDS011;6924;52.122;9.952;2022-07-23T06:58:50;5.00;;;3.30;;
13704;SDS011;6924;52.122;9.952;2022-07-23T07:01:17;3.27;;;2.97;;
13704;SDS011;6924;52.122;9.952;2022-07-23T07:03:43;3.63;;;3.27;;
13704;SDS011;6924;52.122;9.952;2022-07-23T07:06:11;3.90;;;3.60;;
13704;SDS011;6924;52.122;9.952;2022-07-23T07:08:37;3.30;;;3.00;;
13704;SDS011;6924;52.122;9.952;2022-07-23T07:11:04;3.47;;;3.17;;
13704;SDS011;6924;52.122;9.952;2022-07-23T07:13:30;3.43;;;3.20;;
13704;SDS011;6924;52.122;9.952;2022-07-23T07:15:57;4.07;;;3.70;;
13704;SDS011;6924;52.122;9.952;2022-07-23T07:18:23;3.60;;;3.30;;
13704;SDS011;6924;52.122;9.952;2022-07-23T07:20:50;3.50;;;2.80;;
13704;SDS011;6924;52.122;9.952;2022-07-23T07:23:17;3.67;;;3.00;;
13704;SDS011;6924;52.122;9.952;2022-07-23T07:25:45;5.33;;;3.40;;
13704;SDS011;6924;52.122;9.952;2022-07-23T07:28:11;2.60;;;2.00;;
13704;SDS011;6924;52.122;9.952;2022-07-23T07:30:38;2.17;;;2.00;;
13704;SDS011;6924;52.122;9.952;2022-07-23T07:33:04;2.17;;;1.77;;
13704;SDS011;6924;52.122;9.952;2022-07-23T07:35:31;2.40;;;2.20;;
13704;SDS011;6924;52.122;9.952;2022-07-23T07:37:58;2.70;;;2.50;;
13704;SDS011;6924;52.122;9.952;2022-07-23T07:40:26;2.57;;;2.37;;
13704;SDS011;6924;52.122;9.952;2022-07-23T07:42:53;3.13;;;2.33;;
13704;SDS011;6924;52.122;9.952;2022-07-23T07:45:22;2.27;;;1.90;;
13704;SDS011;6924;52.122;9.952;2022-07-23T07:47:49;1.93;;;1.83;;
13704;SDS011;6924;52.122;9.952;2022-07-23T07:50:16;3.20;;;2.10;;
13704;SDS011;6924;52.122;9.952;2022-07-23T07:52:42;2.03;;;1.93;;
13704;SDS011;6924;52.122;9.952;2022-07-23T07:55:09;2.00;;;1.90;;
13704;SDS011;6924;52.122;9.952;2022-07-23T07:57:38;2.20;;;2.00;;
13704;SDS011;6924;52.122;9.952;2022-07-23T08:00:05;3.57;;;1.87;;
13704;SDS011;6924;52.122;9.952;2022-07-23T08:02:39;3.40;;;2.13;;
13704;SDS011;6924;52.122;9.952;2022-07-23T08:05:06;2.13;;;1.93;;
13704;SDS011;6924;52.122;9.952;2022-07-23T08:07:33;1.90;;;1.70;;
13704;SDS011;6924;52.122;9.952;2022-07-23T08:10:00;1.70;;;1.60;;
13704;SDS011;6924;52.122;9.952;2022-07-23T08:12:26;2.40;;;1.50;;
13704;SDS011;6924;52.122;9.952;2022-07-23T08:14:54;2.10;;;1.90;;
13704;SDS011;6924;52.122;9.952;2022-07-23T08:17:21;3.77;;;1.57;;
13704;SDS011;6924;52.122;9.952;2022-07-23T08:19:47;1.60;;;1.50;;
13704;SDS011;6924;52.122;9.952;2022-07-23T08:22:13;1.90;;;1.20;;
13704;SDS011;6924;52.122;9.952;2022-07-23T08:24:40;2.07;;;1.20;;
13704;SDS011;6924;52.122;9.952;2022-07-23T08:27:06;3.37;;;1.30;;
13704;SDS011;6924;52.122;9.952;2022-07-23T08:29:33;2.50;;;1.10;;
13704;SDS011;6924;52.122;9.952;2022-07-23T08:32:01;2.00;;;1.70;;
13704;SDS011;6924;52.122;9.952;2022-07-23T08:34:27;2.00;;;1.40;;
13704;SDS011;6924;52.122;9.952;2022-07-23T08:36:53;2.10;;;1.57;;
13704;SDS011;6924;52.122;9.952;2022-07-23T08:39:20;2.30;;;1.70;;
13704;SDS011;6924;52.122;9.952;2022-07-23T08:41:46;2.17;;;1.77;;
13704;SDS011;6924;52.122;9.952;2022-07-23T08:44:13;2.10;;;1.50;;
13704;SDS011;6924;52.122;9.952;2022-07-23T08:46:42;3.43;;;1.60;;
13704;SDS011;6924;52.122;9.952;2022-07-23T08:49:11;4.23;;;1.77;;
13704;SDS011;6924;52.122;9.952;2022-07-23T08:51:39;2.97;;;2.00;;
13704;SDS011;6924;52.122;9.952;2022-07-23T08:54:06;1.47;;;1.37;;
13704;SDS011;6924;52.122;9.952;2022-07-23T08:56:33;2.07;;;1.57;;
13704;SDS011;6924;52.122;9.952;2022-07-23T08:59:00;2.37;;;1.67;;
13704;SDS011;6924;52.122;9.952;2022-07-23T09:01:27;2.47;;;1.67;;
13704;SDS011;6924;52.122;9.952;2022-07-23T09:03:53;2.17;;;1.47;;
13704;SDS011;6924;52.122;9.952;2022-07-23T09:06:21;4.57;;;2.77;;
13704;SDS011;6924;52.122;9.952;2022-07-23T09:08:47;1.80;;;1.70;;
13704;SDS011;6924;52.122;9.952;2022-07-23T09:11:15;1.40;;;1.30;;
13704;SDS011;6924;52.122;9.952;2022-07-23T09:13:46;1.90;;;1.20;;
13704;SDS011;6924;52.122;9.952;2022-07-23T09:16:14;1.73;;;1.10;;
13704;SDS011;6924;52.122;9.952;2022-07-23T09:18:44;2.50;;;1.63;;
13704;SDS011;6924;52.122;9.952;2022-07-23T09:21:19;2.93;;;1.70;;
13704;SDS011;6924;52.122;9.952;2022-07-23T09:23:50;1.40;;;1.30;;
13704;SDS011;6924;52.122;9.952;2022-07-23T09:26:19;1.80;;;1.63;;
13704;SDS011;6924;52.122;9.952;2022-07-23T09:28:51;1.73;;;1.60;;
13704;SDS011;6924;52.122;9.952;2022-07-23T09:31:20;1.90;;;1.57;;
13704;SDS011;6924;52.122;9.952;2022-07-23T09:33:47;1.77;;;1.40;;
13704;SDS011;6924;52.122;9.952;2022-07-23T09:36:14;1.60;;;1.50;;
13704;SDS011;6924;52.122;9.952;2022-07-23T09:38:49;2.50;;;1.30;;
13704;SDS011;6924;52.122;9.952;2022-07-23T09:41:16;2.50;;;1.83;;
13704;SDS011;6924;52.122;9.952;2022-07-23T09:43:44;1.97;;;1.40;;
13704;SDS011;6924;52.122;9.952;2022-07-23T09:46:17;3.10;;;1.47;;
13704;SDS011;6924;52.122;9.952;2022-07-23T09:48:48;1.37;;;1.27;;
13704;SDS011;6924;52.122;9.952;2022-07-23T09:51:16;1.97;;;1.30;;
13704;SDS011;6924;52.122;9.952;2022-07-23T09:53:44;1.67;;;1.07;;
13704;SDS011;6924;52.122;9.952;2022-07-23T09:56:12;1.33;;;1.23;;
13704;SDS011;6924;52.122;9.952;2022-07-23T09:58:40;1.80;;;1.30;;
13704;SDS011;6924;52.122;9.952;2022-07-23T10:01:12;1.80;;;1.00;;
13704;SDS011;6924;52.122;9.952;2022-07-23T10:03:40;3.10;;;1.93;;
13704;SDS011;6924;52.122;9.952;2022-07-23T10:06:07;1.40;;;1.30;;
13704;SDS011;6924;52.122;9.952;2022-07-23T10:08:34;1.57;;;1.47;;
13704;SDS011;6924;52.122;9.952;2022-07-23T10:11:01;2.90;;;1.80;;
13704;SDS011;6924;52.122;9.952;2022-07-23T10:13:29;1.40;;;1.17;;
13704;SDS011;6924;52.122;9.952;2022-07-23T10:16:22;1.47;;;1.37;;
13704;SDS011;6924;52.122;9.952;2022-07-23T10:18:48;1.77;;;1.20;;
13704;SDS011;6924;52.122;9.952;2022-07-23T10:21:16;1.50;;;1.30;;
13704;SDS011;6924;52.122;9.952;2022-07-23T10:23:51;2.33;;;1.80;;
13704;SDS011;6924;52.122;9.952;2022-07-23T10:26:29;3.87;;;1.20;;
13704;SDS011;6924;52.122;9.952;2022-07-23T10:29:08;2.93;;;1.27;;
13704;SDS011;6924;52.122;9.952;2022-07-23T10:31:47;1.60;;;1.50;;
13704;SDS011;6924;52.122;9.952;2022-07-23T10:34:21;1.67;;;1.50;;
13704;SDS011;6924;52.122;9.952;2022-07-23T10:36:56;1.33;;;1.23;;
13704;SDS011;6924;52.122;9.952;2022-07-23T10:39:26;1.53;;;1.43;;
13704;SDS011;6924;52.122;9.952;2022-07-23T10:42:07;1.63;;;1.23;;
13704;SDS011;6924;52.122;9.952;2022-07-23T10:44:39;1.80;;;1.13;;
13704;SDS011;6924;52.122;9.952;2022-07-23T10:47:07;1.47;;;1.10;;
13704;SDS011;6924;52.122;9.952;2022-07-23T10:49:45;1.87;;;1.10;;
13704;SDS011;6924;52.122;9.952;2022-07-23T10:52:15;1.77;;;1.10;;
13704;SDS011;6924;52.122;9.952;2022-07-23T10:54:47;0.90;;;0.90;;
13704;SDS011;6924;52.122;9.952;2022-07-23T10:57:15;1.67;;;1.17;;
13704;SDS011;6924;52.122;9.952;2022-07-23T11:02:44;1.40;;;1.00;;
13704;SDS011;6924;52.122;9.952;2022-07-23T11:05:12;1.80;;;0.93;;
13704;SDS011;6924;52.122;9.952;2022-07-23T11:10:40;2.40;;;1.43;;
13704;SDS011;6924;52.122;9.952;2022-07-23T11:16:07;0.67;;;0.67;;
13704;SDS011;6924;52.122;9.952;2022-07-23T11:21:43;1.60;;;0.90;;
13704;SDS011;6924;52.122;9.952;2022-07-23T11:24:15;0.77;;;0.77;;
13704;SDS011;6924;52.122;9.952;2022-07-23T11:26:44;1.40;;;0.80;;
13704;SDS011;6924;52.122;9.952;2022-07-23T11:32:06;0.60;;;0.60;;
13704;SDS011;6924;52.122;9.952;2022-07-23T11:34:44;1.73;;;1.00;;
13704;SDS011;6924;52.122;9.952;2022-07-23T11:37:12;0.80;;;0.80;;
13704;SDS011;6924;52.122;9.952;2022-07-23T11:39:54;1.03;;;0.70;;
13704;SDS011;6924;52.122;9.952;2022-07-23T11:42:21;1.50;;;0.83;;
13704;SDS011;6924;52.122;9.952;2022-07-23T11:44:49;0.87;;;0.80;;
13704;SDS011;6924;52.122;9.952;2022-07-23T11:47:21;0.93;;;0.50;;
13704;SDS011;6924;52.122;9.952;2022-07-23T11:49:52;1.63;;;1.10;;
13704;SDS011;6924;52.122;9.952;2022-07-23T11:52:20;1.23;;;0.90;;
13704;SDS011;6924;52.122;9.952;2022-07-23T11:54:48;1.40;;;1.00;;
13704;SDS011;6924;52.122;9.952;2022-07-23T11:57:16;0.80;;;0.77;;
13704;SDS011;6924;52.122;9.952;2022-07-23T11:59:43;1.03;;;0.93;;
13704;SDS011;6924;52.122;9.952;2022-07-23T12:02:11;1.00;;;0.97;;
13704;SDS011;6924;52.122;9.952;2022-07-23T12:04:40;1.63;;;0.77;;
13704;SDS011;6924;52.122;9.952;2022-07-23T12:07:27;0.97;;;0.70;;
13704;SDS011;6924;52.122;9.952;2022-07-23T12:09:56;0.80;;;0.80;;
13704;SDS011;6924;52.122;9.952;2022-07-23T12:12:24;0.70;;;0.70;;
13704;SDS011;6924;52.122;9.952;2022-07-23T12:14:51;2.27;;;1.10;;
13704;SDS011;6924;52.122;9.952;2022-07-23T12:17:19;1.30;;;0.90;;
13704;SDS011;6924;52.122;9.952;2022-07-23T12:19:48;1.60;;;1.03;;
13704;SDS011;6924;52.122;9.952;2022-07-23T12:22:14;2.77;;;0.90;;
13704;SDS011;6924;52.122;9.952;2022-07-23T12:24:57;0.63;;;0.63;;
13704;SDS011;6924;52.122;9.952;2022-07-23T12:27:25;2.77;;;0.90;;
13704;SDS011;6924;52.122;9.952;2022-07-23T12:29:52;2.17;;;1.10;;
13704;SDS011;6924;52.122;9.952;2022-07-23T12:32:20;1.57;;;0.70;;
13704;SDS011;6924;52.122;9.952;2022-07-23T12:34:50;1.37;;;1.27;;
13704;SDS011;6924;52.122;9.952;2022-07-23T12:37:28;1.40;;;0.70;;
13704;SDS011;6924;52.122;9.952;2022-07-23T12:39:56;2.27;;;0.90;;
13704;SDS011;6924;52.122;9.952;2022-07-23T12:42:23;0.80;;;0.53;;
13704;SDS011;6924;52.122;9.952;2022-07-23T12:45:06;0.60;;;0.60;;
13704;SDS011;6924;52.122;9.952;2022-07-23T12:53:18;0.77;;;0.77;;
13704;SDS011;6924;52.122;9.952;2022-07-23T12:55:47;1.00;;;0.70;;
13704;SDS011;6924;52.122;9.952;2022-07-23T12:58:15;1.00;;;0.60;;
13704;SDS011;6924;52.122;9.952;2022-07-23T13:00:50;0.70;;;0.70;;
13704;SDS011;6924;52.122;9.952;2022-07-23T13:03:21;0.70;;;0.70;;
13704;SDS011;6924;52.122;9.952;2022-07-23T13:05:54;1.70;;;1.20;;
13704;SDS011;6924;52.122;9.952;2022-07-23T13:08:21;2.03;;;0.80;;
13704;SDS011;6924;52.122;9.952;2022-07-23T13:10:48;1.00;;;0.73;;
13704;SDS011;6924;52.122;9.952;2022-07-23T13:13:16;2.20;;;0.80;;
13704;SDS011;6924;52.122;9.952;2022-07-23T13:15:43;0.77;;;0.70;;
13704;SDS011;6924;52.122;9.952;2022-07-23T13:18:09;1.27;;;0.53;;
13704;SDS011;6924;52.122;9.952;2022-07-23T13:20:36;4.27;;;0.60;;
13704;SDS011;6924;52.122;9.952;2022-07-23T13:23:05;3.53;;;0.70;;
13704;SDS011;6924;52.122;9.952;2022-07-23T13:25:32;1.73;;;1.00;;
13704;SDS011;6924;52.122;9.952;2022-07-23T13:27:58;0.80;;;0.60;;
13704;SDS011;6924;52.122;9.952;2022-07-23T13:30:25;1.60;;;0.60;;
13704;SDS011;6924;52.122;9.952;2022-07-23T13:32:51;0.67;;;0.60;;
13704;SDS011;6924;52.122;9.952;2022-07-23T13:35:18;0.70;;;0.70;;
13704;SDS011;6924;52.122;9.952;2022-07-23T13:37:45;1.23;;;0.60;;
13704;SDS011;6924;52.122;9.952;2022-07-23T13:40:13;1.13;;;0.87;;
13704;SDS011;6924;52.122;9.952;2022-07-23T13:42:39;0.77;;;0.77;;
13704;SDS011;6924;52.122;9.952;2022-07-23T13:45:06;0.70;;;0.67;;
13704;SDS011;6924;52.122;9.952;2022-07-23T13:47:33;0.80;;;0.67;;
13704;SDS011;6924;52.122;9.952;2022-07-23T13:50:00;0.57;;;0.47;;
13704;SDS011;6924;52.122;9.952;2022-07-23T13:52:26;0.50;;;0.50;;
13704;SDS011;6924;52.122;9.952;2022-07-23T13:54:52;1.10;;;0.90;;
13704;SDS011;6924;52.122;9.952;2022-07-23T13:57:20;0.40;;;0.40;;
13704;SDS011;6924;52.122;9.952;2022-07-23T13:59:47;0.50;;;0.50;;
13704;SDS011;6924;52.122;9.952;2022-07-23T14:02:13;0.90;;;0.87;;
13704;SDS011;6924;52.122;9.952;2022-07-23T14:04:42;0.60;;;0.60;;
13704;SDS011;6924;52.122;9.952;2022-07-23T14:07:09;1.17;;;1.03;;
13704;SDS011;6924;52.122;9.952;2022-07-23T14:09:35;1.20;;;0.80;;
13704;SDS011;6924;52.122;9.952;2022-07-23T14:12:03;0.70;;;0.60;;
13704;SDS011;6924;52.122;9.952;2022-07-23T14:14:31;0.67;;;0.67;;
13704;SDS011;6924;52.122;9.952;2022-07-23T14:16:57;0.83;;;0.57;;
13704;SDS011;6924;52.122;9.952;2022-07-23T14:19:24;0.60;;;0.50;;
13704;SDS011;6924;52.122;9.952;2022-07-23T14:21:51;1.33;;;0.50;;
13704;SDS011;6924;52.122;9.952;2022-07-23T14:24:18;0.50;;;0.50;;
13704;SDS011;6924;52.122;9.952;2022-07-23T14:26:45;1.07;;;0.73;;
13704;SDS011;6924;52.122;9.952;2022-07-23T14:29:12;0.70;;;0.43;;
13704;SDS011;6924;52.122;9.952;2022-07-23T14:31:40;1.23;;;0.97;;
13704;SDS011;6924;52.122;9.952;2022-07-23T14:34:06;1.90;;;0.77;;
13704;SDS011;6924;52.122;9.952;2022-07-23T14:36:33;0.60;;;0.50;;
13704;SDS011;6924;52.122;9.952;2022-07-23T14:38:59;1.67;;;0.77;;
13704;SDS011;6924;52.122;9.952;2022-07-23T14:41:26;0.43;;;0.43;;
13704;SDS011;6924;52.122;9.952;2022-07-23T14:43:53;0.60;;;0.57;;
13704;SDS011;6924;52.122;9.952;2022-07-23T14:46:19;0.60;;;0.60;;
13704;SDS011;6924;52.122;9.952;2022-07-23T14:48:47;1.10;;;0.50;;
13704;SDS011;6924;52.122;9.952;2022-07-23T14:51:14;0.80;;;0.40;;
13704;SDS011;6924;52.122;9.952;2022-07-23T14:53:40;1.63;;;0.83;;
13704;SDS011;6924;52.122;9.952;2022-07-23T14:56:06;1.80;;;0.70;;
13704;SDS011;6924;52.122;9.952;2022-07-23T14:58:33;0.40;;;0.40;;
13704;SDS011;6924;52.122;9.952;2022-07-23T15:01:00;0.60;;;0.50;;
13704;SDS011;6924;52.122;9.952;2022-07-23T15:03:27;0.40;;;0.40;;
13704;SDS011;6924;52.122;9.952;2022-07-23T15:05:54;1.20;;;1.10;;
13704;SDS011;6924;52.122;9.952;2022-07-23T15:08:21;0.40;;;0.40;;
13704;SDS011;6924;52.122;9.952;2022-07-23T15:10:48;1.43;;;0.50;;
13704;SDS011;6924;52.122;9.952;2022-07-23T15:13:14;0.77;;;0.43;;
13704;SDS011;6924;52.122;9.952;2022-07-23T15:15:42;0.80;;;0.77;;
13704;SDS011;6924;52.122;9.952;2022-07-23T15:18:08;1.17;;;0.50;;
13704;SDS011;6924;52.122;9.952;2022-07-23T15:20:34;1.33;;;0.67;;
13704;SDS011;6924;52.122;9.952;2022-07-23T15:23:04;0.63;;;0.47;;